• Join FlightAware (Why Join?)
  • Login
  • US Flag 
10:15AM EDT


 

Airport Tracker/Info


-or-


 

Live Flight TrackerFlight Track Log ✈ CHQ5098 ✈ 28-Jul-2013 ✈ KORD - KGRB

Flight Track Log - Related Links

Times and Time Zones

All times are in EDT time to prevent confusion due to time zone crossing. See the CHQ5098 flight status page for this flight to view local times or setup timezone preferences in your user account.

Time Position Orientation Groundspeed Altitude Reporting Facility
EDT Latitude Longitude Course Direction KTS MPH feet Rate Location/Type
10:49PM 42.0167 -87.9500 346° North 173 199 2,200  Level Chicago TRACON
10:50PM 42.0500 -88.0000 312° West 229 264 4,600 2,580 Climbing Chicago TRACON
10:51PM 42.3213 -88.0095 350° North  Level FlightAware Approximate
10:51PM 42.1447 -88.0250 349° North 248 285 8,300  Level Chicago Center
10:52PM 42.4383 -88.0500 North  Level FlightAware Approximate
10:52PM 42.2222 -88.0286 358° North 277 319 10,500  Level Chicago Center
10:53PM 42.5569 -88.0856 346° North  Level FlightAware Approximate
10:53PM 42.3006 -88.0275 North 281 323 13,200  Level Chicago Center
10:54PM 42.6357 -88.1118 346° North  Level FlightAware Approximate
10:54PM 42.3775 -88.0244 North 276 318 14,100  Level Chicago Center
10:55PM 42.4578 -88.0208 North 286 329 14,100  Level Chicago Center
10:56PM 42.5339 -88.0181 North 276 318 14,100 -60 Level Chicago Center
10:57PM 42.6133 -88.0122 North 281 323 14,000 -60 Descending Chicago Center
10:58PM 42.6900 -88.0183 357° North 278 320 14,000  Level Chicago Center
10:59PM 42.7786 -88.0231 358° North 272 313 14,000  Level Chicago Center
11:00PM 42.8519 -88.0283 357° North 266 306 14,000  Level Chicago Center
11:01PM 42.9261 -88.0319 358° North 267 307 14,000  Level Chicago Center
11:02PM 42.9994 -88.0361 358° North 264 304 14,100  Climbing Chicago Center
11:03PM 43.0739 -88.0414 357° North 266 306 14,100  Level Chicago Center
11:04PM 43.1475 -88.0456 358° North 265 305 14,100  Level Chicago Center
11:05PM 43.2222 -88.0503 357° North 268 308 14,100  Level Chicago Center
11:06PM 43.2981 -88.0539 358° North 272 313 14,100 -60 Level Chicago Center
11:07PM 43.3881 -88.0600 357° North 277 319 14,000 -300 Descending Chicago Center
11:08PM 43.4619 -88.0647 357° North 270 311 13,500 -840 Descending Chicago Center
11:09PM 43.5308 -88.0697 357° North 254 292 12,300 -1,200 Descending Chicago Center
11:10PM 43.6003 -88.0725 358° North 251 289 11,100 -1,140 Descending Chicago Center
11:11PM 43.6714 -88.0789 356° North 255 293 10,000 -600 Descending Chicago Center
11:12PM 43.7347 -88.0833 357° North 238 274 10,000  Level Chicago Center
11:13PM 43.8008 -88.0869 358° North 234 269 10,000  Level Chicago Center
11:14PM 43.8697 -88.0922 357° North 245 282 10,000 -300 Level Chicago Center
11:15PM 43.9386 -88.0994 356° North 248 285 9,500 -1,320 Descending Chicago Center
11:16PM 44.0139 -88.1047 357° North 236 272 7,400 -1,920 Descending Chicago Center
11:17PM 44.0789 -88.1100 357° North 234 269 5,600 -1,680 Descending Chicago Center
11:19PM 44.1428 -88.1139 357° North 232 267 4,000 -1,140 Descending Chicago Center
11:20PM 44.2006 -88.1211 355° North 220 253 3,400 -600 Descending Chicago Center
11:21PM 44.2511 -88.1256 356° North 198 228 2,800 -480 Descending Chicago Center
11:22PM 44.3067 -88.1286 358° North 196 226 2,500 -240 Descending Chicago Center
11:23PM 44.3533 -88.1369 353° North 182 209 2,400 -180 Descending Chicago Center
11:24PM 44.3958 -88.1386 358° North 165 190 2,200 -300 Descending Chicago Center
11:25PM 44.4331 -88.1375 North 154 177 1,800 -420 Descending Chicago Center